This is the latest recevied weather packets stored in our database for station/object KC2WGU. If no packets are shown the sender has not sent any weather packets the latest 10 day(s).
| Time | Temp. | Humidity | Pressure | Rain* | Wind** | Luminosity | Snow |
|---|---|---|---|---|---|---|---|
| 1777895422 | 10.56° C | 58% | 1006.9 hPa | 0 mm | - | 0 W/m² | - |
| 1777894822 | 11.11° C | 59% | 1006.7 hPa | 0 mm | - | 0 W/m² | - |
| 1777894221 | 10.56° C | 60% | 1006.9 hPa | 0 mm | - | 0 W/m² | - |
| 1777893621 | 10° C | 59% | 1006.9 hPa | 0 mm | - | 0 W/m² | - |
| 1777893021 | 10° C | 61% | 1007 hPa | 0 mm | - | 0 W/m² | - |
| 1777892421 | 9.44° C | 62% | 1007.1 hPa | 0 mm | - | 0 W/m² | - |
| 1777891820 | 9.44° C | 63% | 1007.1 hPa | 0 mm | - | 0 W/m² | - |
| 1777891220 | 8.89° C | 64% | 1007.1 hPa | 0 mm | - | 0 W/m² | - |
| 1777890622 | 7.78° C | 66% | 1007.2 hPa | 0 mm | - | 0 W/m² | - |
| 1777890021 | 7.78° C | 66% | 1007 hPa | 0 mm | - | 0 W/m² | - |
| 1777889421 | 7.78° C | 65% | 1007 hPa | 0 mm | - | 0 W/m² | - |
| 1777888822 | 8.33° C | 64% | 1006.9 hPa | 0 mm | - | 0 W/m² | - |
| 1777888221 | 7.78° C | 65% | 1006.9 hPa | 0 mm | - | 0 W/m² | - |
| 1777887621 | 7.78° C | 65% | 1006.9 hPa | 0 mm | - | 0 W/m² | - |
| 1777887022 | 8.33° C | 64% | 1006.9 hPa | 0 mm | - | 0 W/m² | - |
| 1777886421 | 8.33° C | 65% | 1006.9 hPa | 0 mm | - | 0 W/m² | - |
| 1777885821 | 8.33° C | 65% | 1006.9 hPa | 0 mm | - | 0 W/m² | - |
| 1777885221 | 8.33° C | 65% | 1006.9 hPa | 0 mm | - | 0 W/m² | - |
| 1777884621 | 8.33° C | 64% | 1007 hPa | 0 mm | - | 0 W/m² | - |
| 1777884021 | 8.33° C | 66% | 1006.9 hPa | 0 mm | - | 0 W/m² | - |
| 1777883421 | 8.33° C | 67% | 1007 hPa | 0 mm | - | 0 W/m² | - |
| 1777882823 | 8.33° C | 68% | 1007 hPa | 0 mm | - | 0 W/m² | - |
| 1777882221 | 8.33° C | 71% | 1007.1 hPa | 0 mm | - | 0 W/m² | - |
| 1777881622 | 7.78° C | 78% | 1007.1 hPa | 0 mm | - | 0 W/m² | - |
| 1777881021 | 6.11° C | 88% | 1007.1 hPa | 0 mm | - | 0 W/m² | - |
* Rain latest hour (hover to see other rain measurements)
** Current wind speed in m/s (hover to see current wind gust speed)